Time;durP1;ratioP1;P1;durP2;ratioP2;P2;SDS_P1;SDS_P2;PMS_P1;PMS_P2;Temp;Humidity;BMP_temperature;BMP_pressure;BME280_temperature;BME280_humidity;BME280_pressure;Samples;Min_cycle;Max_cycle;Signal;HPM_P1;HPM_P2
2023/03/19 00:00:43;;;;;;;7.53;3.60;;;;;;;;;;5010899;28;20058;-69
2023/03/19 00:03:11;;;;;;;4.70;3.10;;;;;;;;;;5010962;28;20046;-68
2023/03/19 00:05:38;;;;;;;4.45;3.33;;;;;;;;;;5009785;28;20046;-69
2023/03/19 00:08:05;;;;;;;6.80;3.70;;;;;;;;;;5010024;28;20082;-69
2023/03/19 00:10:32;;;;;;;6.10;3.78;;;;;;;;;;5010472;28;20042;-69
2023/03/19 00:12:58;;;;;;;4.78;3.33;;;;;;;;;;5009589;28;20049;-69
2023/03/19 00:15:25;;;;;;;5.13;3.50;;;;;;;;;;5010275;28;20049;-69
2023/03/19 00:17:53;;;;;;;4.15;3.10;;;;;;;;;;5009116;28;20049;-69
2023/03/19 00:20:21;;;;;;;4.07;3.20;;;;;;;;;;5009570;28;20088;-68
2023/03/19 00:22:47;;;;;;;6.65;3.47;;;;;;;;;;5008943;28;20046;-69
2023/03/19 00:25:14;;;;;;;7.55;3.80;;;;;;;;;;5010286;28;20085;-69
2023/03/19 00:27:41;;;;;;;6.22;3.70;;;;;;;;;;5009225;28;20114;-69
2023/03/19 00:30:10;;;;;;;3.75;3.13;;;;;;;;;;5010156;28;20133;-70
2023/03/19 00:32:38;;;;;;;4.57;3.50;;;;;;;;;;5009316;28;20137;-70
2023/03/19 00:35:06;;;;;;;4.47;3.30;;;;;;;;;;5010017;28;20132;-70
2023/03/19 00:37:34;;;;;;;5.30;3.38;;;;;;;;;;5009498;28;20054;-70
2023/03/19 00:40:01;;;;;;;4.90;3.53;;;;;;;;;;5009937;28;20111;-69
2023/03/19 00:42:27;;;;;;;5.80;4.10;;;;;;;;;;5009739;28;20041;-70
2023/03/19 00:44:54;;;;;;;5.10;3.45;;;;;;;;;;5008977;28;20085;-70
2023/03/19 00:47:21;;;;;;;5.22;3.67;;;;;;;;;;5008988;28;20056;-70
2023/03/19 00:49:48;;;;;;;8.68;3.95;;;;;;;;;;5009004;28;20388;-69
2023/03/19 00:52:15;;;;;;;5.63;3.80;;;;;;;;;;5009613;28;20052;-69
2023/03/19 00:54:43;;;;;;;5.95;3.70;;;;;;;;;;5009428;28;20057;-69
2023/03/19 00:57:09;;;;;;;4.72;3.22;;;;;;;;;;5009246;28;20198;-69
2023/03/19 00:59:36;;;;;;;3.97;3.38;;;;;;;;;;5008659;28;20464;-69
2023/03/19 01:02:03;;;;;;;5.30;3.90;;;;;;;;;;5009229;28;20049;-69
2023/03/19 01:04:29;;;;;;;9.82;3.88;;;;;;;;;;5008738;28;20052;-70
2023/03/19 01:06:57;;;;;;;6.90;4.22;;;;;;;;;;5008636;28;20058;-70
2023/03/19 01:09:24;;;;;;;6.93;4.25;;;;;;;;;;5008793;28;20053;-70
2023/03/19 01:11:52;;;;;;;4.97;3.60;;;;;;;;;;5008760;28;20077;-69
2023/03/19 01:14:18;;;;;;;4.72;3.60;;;;;;;;;;5007896;28;20081;-69
2023/03/19 01:16:45;;;;;;;5.97;3.70;;;;;;;;;;5009491;28;20041;-69
2023/03/19 01:19:12;;;;;;;6.88;4.40;;;;;;;;;;5008295;28;20052;-69
2023/03/19 01:21:39;;;;;;;5.72;4.00;;;;;;;;;;5009404;28;20121;-70
2023/03/19 01:24:06;;;;;;;6.47;3.72;;;;;;;;;;5008578;28;20077;-70
2023/03/19 01:26:32;;;;;;;5.18;4.13;;;;;;;;;;5008616;28;20422;-69
2023/03/19 01:29:00;;;;;;;6.50;4.03;;;;;;;;;;5008928;28;20129;-69
2023/03/19 01:31:27;;;;;;;7.35;3.88;;;;;;;;;;5008829;28;20042;-70
2023/03/19 01:33:54;;;;;;;6.30;3.95;;;;;;;;;;5008503;28;20048;-69
2023/03/19 01:36:21;;;;;;;10.43;3.97;;;;;;;;;;5007921;28;20057;-69
2023/03/19 01:38:47;;;;;;;5.65;4.03;;;;;;;;;;5008764;28;20107;-69
2023/03/19 01:41:14;;;;;;;7.88;3.85;;;;;;;;;;5007823;28;20487;-69
2023/03/19 01:43:41;;;;;;;5.55;3.80;;;;;;;;;;5008782;28;20042;-69
2023/03/19 01:46:15;;;;;;;5.55;3.88;;;;;;;;;;5008501;28;20045;-69
2023/03/19 01:48:44;;;;;;;6.07;3.65;;;;;;;;;;5008251;28;20407;-69
2023/03/19 01:51:15;;;;;;;5.95;4.03;;;;;;;;;;5007949;28;20057;-69
2023/03/19 01:53:46;;;;;;;5.88;3.55;;;;;;;;;;5008329;28;20053;-69
2023/03/19 01:56:15;;;;;;;5.68;4.03;;;;;;;;;;5008605;28;20054;-69
2023/03/19 01:58:45;;;;;;;7.07;4.22;;;;;;;;;;5008751;28;20046;-69
2023/03/19 02:01:14;;;;;;;9.10;3.95;;;;;;;;;;5011691;28;20050;-69
2023/03/19 02:03:42;;;;;;;6.65;4.03;;;;;;;;;;5012964;28;20110;-69
2023/03/19 02:06:11;;;;;;;7.63;4.45;;;;;;;;;;5012411;28;20048;-69
2023/03/19 02:08:38;;;;;;;5.60;4.03;;;;;;;;;;5012695;28;20528;-69
2023/03/19 02:11:06;;;;;;;5.70;4.15;;;;;;;;;;5012007;28;20053;-69
2023/03/19 02:13:34;;;;;;;7.50;3.90;;;;;;;;;;5012475;28;20086;-69
2023/03/19 02:16:01;;;;;;;6.13;3.83;;;;;;;;;;5012011;28;20050;-69
2023/03/19 02:18:29;;;;;;;5.60;3.60;;;;;;;;;;5012164;28;20050;-70
2023/03/19 02:21:00;;;;;;;7.30;4.03;;;;;;;;;;5011568;28;20050;-70
2023/03/19 02:23:37;;;;;;;8.02;3.78;;;;;;;;;;5013039;28;20042;-70
2023/03/19 02:26:08;;;;;;;5.72;3.75;;;;;;;;;;5012679;28;20050;-69
2023/03/19 02:28:36;;;;;;;4.97;3.72;;;;;;;;;;5011687;28;20041;-70
2023/03/19 02:31:03;;;;;;;7.63;4.95;;;;;;;;;;5011635;28;20050;-69
2023/03/19 02:33:30;;;;;;;6.47;3.65;;;;;;;;;;5012541;28;20054;-72
2023/03/19 02:35:58;;;;;;;5.30;3.78;;;;;;;;;;5012224;28;20133;-68
2023/03/19 02:38:26;;;;;;;5.82;3.80;;;;;;;;;;5011360;28;20046;-68
2023/03/19 02:40:58;;;;;;;4.70;4.00;;;;;;;;;;5011242;28;20481;-69
2023/03/19 02:43:26;;;;;;;7.75;4.47;;;;;;;;;;5011652;28;20052;-68
2023/03/19 02:45:54;;;;;;;4.07;3.60;;;;;;;;;;5012328;28;20165;-69
2023/03/19 02:48:21;;;;;;;5.50;3.85;;;;;;;;;;5012169;28;20068;-69
2023/03/19 02:50:47;;;;;;;5.95;3.80;;;;;;;;;;5011759;28;20515;-68
2023/03/19 02:53:14;;;;;;;6.05;4.38;;;;;;;;;;5011382;28;20517;-69
2023/03/19 02:55:41;;;;;;;5.57;3.33;;;;;;;;;;5011243;28;20053;-68
2023/03/19 02:58:08;;;;;;;5.82;3.80;;;;;;;;;;5010517;28;20052;-69
2023/03/19 03:00:36;;;;;;;5.97;3.70;;;;;;;;;;5011043;28;20056;-69
2023/03/19 03:03:05;;;;;;;5.57;3.85;;;;;;;;;;5011087;28;20132;-69
2023/03/19 03:05:32;;;;;;;6.70;4.10;;;;;;;;;;5011124;28;20052;-69
2023/03/19 03:07:58;;;;;;;5.25;3.78;;;;;;;;;;5012109;28;20097;-69
2023/03/19 03:10:25;;;;;;;4.68;4.00;;;;;;;;;;5012250;28;20054;-70
2023/03/19 03:12:52;;;;;;;6.78;4.30;;;;;;;;;;5010654;28;20066;-69
2023/03/19 03:15:19;;;;;;;6.57;4.43;;;;;;;;;;5011500;28;20056;-68
2023/03/19 03:17:47;;;;;;;5.38;4.00;;;;;;;;;;5011131;28;20060;-69
2023/03/19 03:20:16;;;;;;;5.95;4.47;;;;;;;;;;5011005;28;20053;-69
2023/03/19 03:22:43;;;;;;;5.25;3.78;;;;;;;;;;5012330;28;20549;-69
2023/03/19 03:25:11;;;;;;;7.05;3.72;;;;;;;;;;5011152;28;20056;-68
2023/03/19 03:27:37;;;;;;;7.07;3.72;;;;;;;;;;5011075;28;20057;-69
2023/03/19 03:30:05;;;;;;;8.82;4.13;;;;;;;;;;5010581;28;20056;-69
2023/03/19 03:32:31;;;;;;;8.05;4.13;;;;;;;;;;5011793;28;20049;-70
2023/03/19 03:35:00;;;;;;;6.82;4.00;;;;;;;;;;5010874;28;20085;-69
2023/03/19 03:37:27;;;;;;;5.68;4.25;;;;;;;;;;5010398;28;20296;-69
2023/03/19 03:39:53;;;;;;;6.95;3.60;;;;;;;;;;5009998;28;20122;-69
2023/03/19 03:42:20;;;;;;;6.00;4.05;;;;;;;;;;5011455;28;20050;-69
2023/03/19 03:44:47;;;;;;;6.07;4.20;;;;;;;;;;5011123;28;20042;-70
2023/03/19 03:47:14;;;;;;;5.35;3.70;;;;;;;;;;5010714;28;20499;-69
2023/03/19 03:49:40;;;;;;;5.38;4.07;;;;;;;;;;5010421;28;20042;-70
2023/03/19 03:52:09;;;;;;;6.72;4.05;;;;;;;;;;5011243;28;20050;-70
2023/03/19 03:54:36;;;;;;;4.03;3.63;;;;;;;;;;5009363;28;20054;-69
2023/03/19 03:57:02;;;;;;;5.55;3.83;;;;;;;;;;5010286;28;20056;-69
2023/03/19 03:59:29;;;;;;;5.13;3.50;;;;;;;;;;5009536;28;20046;-70
2023/03/19 04:01:56;;;;;;;5.03;3.47;;;;;;;;;;5009802;28;20085;-69
2023/03/19 04:04:23;;;;;;;4.63;3.20;;;;;;;;;;5009764;28;20060;-70
2023/03/19 04:06:49;;;;;;;10.32;4.18;;;;;;;;;;5009678;28;20046;-69
2023/03/19 04:09:17;;;;;;;4.93;3.42;;;;;;;;;;5009190;28;20054;-69
2023/03/19 04:11:44;;;;;;;5.20;3.58;;;;;;;;;;5010242;28;20050;-69
2023/03/19 04:14:11;;;;;;;5.45;4.18;;;;;;;;;;5013044;28;20632;-69
2023/03/19 04:16:37;;;;;;;5.53;3.40;;;;;;;;;;5023856;23;20066;-70
2023/03/19 04:19:04;;;;;;;3.88;3.20;;;;;;;;;;4989788;28;20107;-67
2023/03/19 04:21:30;;;;;;;5.43;3.45;;;;;;;;;;4989837;28;20051;-69
2023/03/19 04:23:57;;;;;;;5.53;3.53;;;;;;;;;;4988964;28;20403;-69
2023/03/19 04:26:25;;;;;;;6.00;3.50;;;;;;;;;;4988892;28;20050;-68
2023/03/19 04:28:52;;;;;;;8.27;3.50;;;;;;;;;;4989555;28;20438;-70
2023/03/19 04:31:18;;;;;;;6.05;3.80;;;;;;;;;;4989370;28;20499;-69
2023/03/19 04:33:45;;;;;;;6.90;3.60;;;;;;;;;;4989622;28;20046;-70
2023/03/19 04:36:12;;;;;;;5.22;3.55;;;;;;;;;;4988893;28;20046;-68
2023/03/19 04:38:38;;;;;;;4.18;3.22;;;;;;;;;;4989329;28;20499;-68
2023/03/19 04:41:05;;;;;;;4.57;3.55;;;;;;;;;;4989037;28;20052;-69
2023/03/19 04:43:33;;;;;;;5.32;3.20;;;;;;;;;;4989125;28;20048;-69
2023/03/19 04:45:59;;;;;;;5.03;3.45;;;;;;;;;;4988895;28;20535;-69
2023/03/19 04:48:27;;;;;;;5.18;3.50;;;;;;;;;;4989310;28;20043;-70
2023/03/19 04:50:55;;;;;;;4.32;3.38;;;;;;;;;;4988565;28;20573;-71
2023/03/19 04:53:22;;;;;;;7.07;3.75;;;;;;;;;;4989156;28;20053;-70
2023/03/19 04:55:49;;;;;;;5.50;3.78;;;;;;;;;;4988557;28;20058;-68
2023/03/19 04:58:16;;;;;;;8.00;3.78;;;;;;;;;;4989056;28;20095;-69
2023/03/19 05:00:45;;;;;;;5.90;3.75;;;;;;;;;;4989002;28;20042;-69
2023/03/19 05:03:12;;;;;;;4.10;3.28;;;;;;;;;;4988775;28;20050;-70
2023/03/19 05:05:38;;;;;;;4.13;3.45;;;;;;;;;;4988858;28;20098;-69
2023/03/19 05:08:06;;;;;;;3.88;3.38;;;;;;;;;;4988753;28;20046;-70
2023/03/19 05:10:33;;;;;;;4.75;3.03;;;;;;;;;;4988525;28;20167;-67
2023/03/19 05:13:00;;;;;;;4.38;3.53;;;;;;;;;;4987890;28;20050;-67
2023/03/19 05:15:26;;;;;;;4.82;3.13;;;;;;;;;;4988415;28;20054;-67
2023/03/19 05:17:54;;;;;;;5.18;3.15;;;;;;;;;;4987902;28;20050;-68
2023/03/19 05:20:22;;;;;;;4.28;3.33;;;;;;;;;;4988292;28;20406;-67
2023/03/19 05:22:49;;;;;;;4.60;3.70;;;;;;;;;;4988124;28;20137;-67
2023/03/19 05:25:16;;;;;;;6.80;3.55;;;;;;;;;;4988092;28;20057;-68
2023/03/19 05:27:42;;;;;;;4.40;3.80;;;;;;;;;;4987298;28;20058;-67
2023/03/19 05:30:10;;;;;;;4.13;3.17;;;;;;;;;;4988113;28;20050;-67
2023/03/19 05:32:37;;;;;;;5.13;3.47;;;;;;;;;;4988010;28;20070;-67
2023/03/19 05:35:06;;;;;;;5.90;3.58;;;;;;;;;;4988581;28;20091;-67
2023/03/19 05:37:33;;;;;;;5.85;3.85;;;;;;;;;;4991094;28;20217;-68
2023/03/19 05:39:59;;;;;;;5.38;3.78;;;;;;;;;;4991586;28;20095;-68
2023/03/19 05:42:26;;;;;;;5.32;3.33;;;;;;;;;;4991163;28;20431;-68
2023/03/19 05:44:53;;;;;;;4.30;3.60;;;;;;;;;;4991122;28;20050;-68
2023/03/19 05:47:20;;;;;;;6.30;4.00;;;;;;;;;;4990523;28;20077;-68
2023/03/19 05:49:46;;;;;;;6.15;3.53;;;;;;;;;;4991362;28;20046;-67
2023/03/19 05:52:15;;;;;;;4.70;3.60;;;;;;;;;;4991036;28;20049;-68
2023/03/19 05:54:41;;;;;;;6.05;3.25;;;;;;;;;;4991490;28;20328;-67
2023/03/19 05:57:08;;;;;;;5.25;3.38;;;;;;;;;;4991081;28;20054;-67
2023/03/19 05:59:35;;;;;;;8.02;3.65;;;;;;;;;;4990626;28;20355;-67
2023/03/19 06:02:02;;;;;;;4.22;3.55;;;;;;;;;;4991250;28;20050;-68
2023/03/19 06:04:28;;;;;;;5.00;3.38;;;;;;;;;;4990799;28;20153;-67
2023/03/19 06:06:55;;;;;;;8.30;4.25;;;;;;;;;;4990873;28;20066;-67
2023/03/19 06:09:23;;;;;;;7.28;4.32;;;;;;;;;;4990476;28;20046;-68
2023/03/19 06:11:50;;;;;;;4.95;3.33;;;;;;;;;;4991168;28;20046;-67
2023/03/19 06:14:17;;;;;;;5.40;3.42;;;;;;;;;;4990331;28;20065;-67
2023/03/19 06:16:43;;;;;;;4.90;3.65;;;;;;;;;;4990924;28;20057;-67
2023/03/19 06:19:10;;;;;;;5.43;3.28;;;;;;;;;;4990677;28;20506;-68
2023/03/19 06:21:37;;;;;;;5.55;4.00;;;;;;;;;;4991399;28;20046;-68
2023/03/19 06:24:03;;;;;;;11.48;4.00;;;;;;;;;;4990651;28;20228;-68
2023/03/19 06:26:31;;;;;;;4.28;3.30;;;;;;;;;;4990409;28;20555;-68
2023/03/19 06:28:58;;;;;;;5.25;3.30;;;;;;;;;;4990134;28;20050;-67
2023/03/19 06:31:26;;;;;;;5.75;3.47;;;;;;;;;;4990940;28;20046;-67
2023/03/19 06:33:52;;;;;;;6.88;3.50;;;;;;;;;;4990462;28;20423;-67
2023/03/19 06:36:19;;;;;;;4.72;3.10;;;;;;;;;;4990898;28;20410;-68
2023/03/19 06:38:46;;;;;;;6.00;3.67;;;;;;;;;;4990183;28;20087;-68
2023/03/19 06:41:12;;;;;;;5.18;3.75;;;;;;;;;;4990202;28;20541;-68
2023/03/19 06:43:41;;;;;;;5.97;3.88;;;;;;;;;;4990349;28;20048;-67
2023/03/19 06:46:09;;;;;;;5.20;3.88;;;;;;;;;;4989756;28;20057;-68
2023/03/19 06:48:36;;;;;;;5.90;3.50;;;;;;;;;;4990025;28;20051;-68
2023/03/19 06:51:03;;;;;;;6.07;3.65;;;;;;;;;;4990044;28;20042;-68
2023/03/19 06:53:30;;;;;;;4.63;3.50;;;;;;;;;;4990088;28;20057;-68
2023/03/19 06:55:56;;;;;;;4.28;3.42;;;;;;;;;;4989861;28;20054;-68
2023/03/19 06:58:23;;;;;;;5.57;3.38;;;;;;;;;;4990122;28;20050;-68
2023/03/19 07:00:51;;;;;;;5.40;3.75;;;;;;;;;;4990392;28;20236;-68
2023/03/19 07:03:17;;;;;;;4.22;3.47;;;;;;;;;;4990014;28;20042;-68
2023/03/19 07:05:44;;;;;;;6.38;3.70;;;;;;;;;;4990027;28;20056;-68
2023/03/19 07:08:11;;;;;;;4.28;3.88;;;;;;;;;;4989719;28;20054;-68
2023/03/19 07:10:38;;;;;;;5.35;3.90;;;;;;;;;;4989639;28;20046;-68
2023/03/19 07:13:05;;;;;;;7.93;4.40;;;;;;;;;;4989817;28;20050;-68
2023/03/19 07:15:31;;;;;;;5.70;4.32;;;;;;;;;;4989616;28;20050;-68
2023/03/19 07:18:00;;;;;;;7.13;3.83;;;;;;;;;;4989979;28;20050;-67
2023/03/19 07:20:28;;;;;;;4.90;3.92;;;;;;;;;;4989388;28;20047;-67
2023/03/19 07:22:55;;;;;;;4.28;3.83;;;;;;;;;;4989838;28;20407;-68
2023/03/19 07:25:21;;;;;;;5.25;3.67;;;;;;;;;;4989859;28;20057;-68
2023/03/19 07:27:48;;;;;;;7.78;3.97;;;;;;;;;;4989662;28;20103;-68
2023/03/19 07:30:15;;;;;;;5.40;4.20;;;;;;;;;;4989629;28;20043;-68
2023/03/19 07:32:42;;;;;;;5.30;4.20;;;;;;;;;;4989906;28;20095;-68
2023/03/19 07:35:10;;;;;;;6.57;4.78;;;;;;;;;;4989684;28;20512;-68
2023/03/19 07:37:37;;;;;;;7.22;5.45;;;;;;;;;;4988987;28;20393;-67
2023/03/19 07:40:04;;;;;;;8.93;5.50;;;;;;;;;;4989650;28;20113;-67
2023/03/19 07:42:31;;;;;;;7.22;5.32;;;;;;;;;;4989374;28;20058;-68
2023/03/19 07:44:58;;;;;;;9.02;6.15;;;;;;;;;;4989533;28;20046;-67
2023/03/19 07:47:24;;;;;;;8.43;6.32;;;;;;;;;;4988938;28;20046;-67
2023/03/19 07:49:51;;;;;;;12.27;7.72;;;;;;;;;;4989810;28;20057;-68
2023/03/19 07:52:19;;;;;;;11.63;7.50;;;;;;;;;;4989040;28;20051;-68
2023/03/19 07:54:45;;;;;;;9.77;6.78;;;;;;;;;;4989333;28;20133;-68
2023/03/19 07:57:12;;;;;;;8.77;6.20;;;;;;;;;;4988285;28;20050;-68
2023/03/19 07:59:38;;;;;;;7.05;5.53;;;;;;;;;;4988991;28;20054;-68
2023/03/19 08:02:05;;;;;;;8.50;6.35;;;;;;;;;;4989239;28;20056;-68
2023/03/19 08:04:32;;;;;;;7.47;5.68;;;;;;;;;;4988918;28;20498;-67
2023/03/19 08:06:59;;;;;;;7.53;5.15;;;;;;;;;;4988789;28;20051;-67
2023/03/19 08:09:27;;;;;;;7.70;4.90;;;;;;;;;;4989014;28;20053;-68
2023/03/19 08:11:54;;;;;;;8.25;6.50;;;;;;;;;;4989048;28;20095;-68
2023/03/19 08:14:21;;;;;;;9.15;6.03;;;;;;;;;;4989028;28;20046;-68
2023/03/19 08:16:48;;;;;;;9.38;6.03;;;;;;;;;;4988947;28;20046;-67
2023/03/19 08:19:15;;;;;;;6.97;5.22;;;;;;;;;;4988812;28;20073;-68
2023/03/19 08:21:42;;;;;;;8.00;5.80;;;;;;;;;;4989170;28;20092;-68
2023/03/19 08:24:08;;;;;;;6.43;4.53;;;;;;;;;;4989034;28;20050;-68
2023/03/19 08:26:37;;;;;;;10.15;6.45;;;;;;;;;;4988948;28;20046;-68
2023/03/19 08:29:04;;;;;;;7.60;5.43;;;;;;;;;;4988556;28;20047;-68
2023/03/19 08:31:31;;;;;;;9.00;5.38;;;;;;;;;;4988898;28;20050;-68
2023/03/19 08:33:59;;;;;;;9.05;6.00;;;;;;;;;;4988800;28;20487;-68
2023/03/19 08:36:25;;;;;;;9.38;5.47;;;;;;;;;;4989211;28;20051;-68
2023/03/19 08:38:53;;;;;;;8.55;5.32;;;;;;;;;;4988763;28;20054;-68
2023/03/19 08:41:20;;;;;;;9.95;6.05;;;;;;;;;;4988816;28;20053;-68
2023/03/19 08:43:48;;;;;;;8.07;6.75;;;;;;;;;;4988509;28;20047;-68
2023/03/19 08:46:16;;;;;;;9.73;7.68;;;;;;;;;;4988821;28;20133;-68
2023/03/19 08:48:43;;;;;;;10.25;7.05;;;;;;;;;;4988065;28;20046;-68
2023/03/19 08:51:10;;;;;;;10.85;6.13;;;;;;;;;;4988679;28;20042;-68
2023/03/19 08:53:39;;;;;;;7.95;6.18;;;;;;;;;;4988171;28;20049;-67
2023/03/19 08:56:07;;;;;;;7.57;6.00;;;;;;;;;;4988626;28;20393;-68
2023/03/19 08:58:34;;;;;;;9.48;6.15;;;;;;;;;;4987831;28;20060;-68
2023/03/19 09:01:03;;;;;;;7.88;6.10;;;;;;;;;;4988836;28;20050;-67
2023/03/19 09:03:30;;;;;;;8.68;5.35;;;;;;;;;;4988153;28;20137;-67
2023/03/19 09:05:59;;;;;;;6.38;4.72;;;;;;;;;;4988698;28;20695;-68
2023/03/19 09:08:25;;;;;;;5.43;4.40;;;;;;;;;;4987945;28;20108;-68
2023/03/19 09:10:52;;;;;;;5.65;4.00;;;;;;;;;;4988267;28;20050;-68
2023/03/19 09:13:18;;;;;;;5.47;4.35;;;;;;;;;;4988705;28;20070;-68
2023/03/19 09:15:45;;;;;;;5.00;4.05;;;;;;;;;;4989275;28;20050;-68
2023/03/19 09:18:13;;;;;;;5.60;4.45;;;;;;;;;;4988580;28;20064;-68
2023/03/19 09:20:39;;;;;;;5.95;4.75;;;;;;;;;;4988112;28;20063;-67
2023/03/19 09:23:06;;;;;;;9.52;8.40;;;;;;;;;;4988656;28;20046;-67
2023/03/19 09:25:33;;;;;;;6.60;5.03;;;;;;;;;;4988682;28;20046;-67
2023/03/19 09:27:59;;;;;;;7.82;5.30;;;;;;;;;;4988466;28;20053;-67
2023/03/19 09:30:27;;;;;;;10.23;7.25;;;;;;;;;;4988806;28;20051;-67
2023/03/19 09:32:53;;;;;;;9.88;7.85;;;;;;;;;;4988204;28;20046;-68
2023/03/19 09:35:21;;;;;;;9.60;7.90;;;;;;;;;;4988090;28;20411;-67
2023/03/19 09:37:48;;;;;;;15.60;8.60;;;;;;;;;;4987962;28;20109;-67
2023/03/19 09:40:22;;;;;;;9.68;7.15;;;;;;;;;;4987843;28;20053;-68
2023/03/19 09:42:57;;;;;;;8.13;6.28;;;;;;;;;;4988635;28;20072;-67
2023/03/19 09:45:25;;;;;;;8.38;5.80;;;;;;;;;;4987902;28;20047;-68
2023/03/19 09:47:56;;;;;;;7.22;6.20;;;;;;;;;;4987744;28;20057;-68
2023/03/19 09:50:27;;;;;;;14.80;11.18;;;;;;;;;;4987515;28;20046;-67
2023/03/19 09:52:58;;;;;;;9.77;5.47;;;;;;;;;;4987591;28;20086;-67
2023/03/19 09:55:35;;;;;;;9.05;6.05;;;;;;;;;;4987687;28;20057;-68
2023/03/19 09:58:08;;;;;;;9.50;4.90;;;;;;;;;;4987567;28;20054;-67
2023/03/19 10:00:37;;;;;;;5.95;4.55;;;;;;;;;;4987373;28;20073;-67
2023/03/19 10:03:14;;;;;;;7.03;5.47;;;;;;;;;;4987764;28;20129;-67
2023/03/19 10:05:50;;;;;;;7.35;4.88;;;;;;;;;;4987513;28;20052;-67
2023/03/19 10:08:33;;;;;;;7.90;5.28;;;;;;;;;;4987409;28;20078;-67
2023/03/19 10:11:22;;;;;;;7.97;5.78;;;;;;;;;;4987599;28;20050;-67
2023/03/19 10:13:59;;;;;;;7.88;5.28;;;;;;;;;;4987776;28;20508;-67
2023/03/19 10:16:27;;;;;;;4.28;3.83;;;;;;;;;;4987443;28;20506;-67
2023/03/19 10:18:57;;;;;;;7.43;4.50;;;;;;;;;;5016949;23;20054;-64
2023/03/19 10:21:31;;;;;;;5.72;3.50;;;;;;;;;;5008035;28;20388;-66
2023/03/19 10:24:02;;;;;;;5.22;3.83;;;;;;;;;;5010073;28;20050;-67
2023/03/19 10:26:30;;;;;;;4.38;3.47;;;;;;;;;;5010089;28;20050;-68
2023/03/19 10:29:04;;;;;;;4.65;3.35;;;;;;;;;;5009803;28;20045;-66
2023/03/19 10:31:42;;;;;;;6.03;4.78;;;;;;;;;;5010311;28;20050;-65
2023/03/19 10:34:27;;;;;;;4.78;3.33;;;;;;;;;;5010219;28;20162;-66
2023/03/19 10:37:02;;;;;;;3.85;3.00;;;;;;;;;;5009844;28;20564;-65
2023/03/19 10:39:31;;;;;;;4.32;2.88;;;;;;;;;;5010025;28;20064;-65
2023/03/19 10:42:07;;;;;;;5.10;3.10;;;;;;;;;;5009986;28;20062;-66
2023/03/19 10:44:37;;;;;;;6.40;3.45;;;;;;;;;;5009853;28;20056;-66
2023/03/19 10:47:10;;;;;;;5.07;3.30;;;;;;;;;;5009546;28;20191;-67
2023/03/19 10:49:37;;;;;;;5.03;2.90;;;;;;;;;;5010177;28;20115;-65
2023/03/19 10:52:16;;;;;;;3.85;3.05;;;;;;;;;;5009981;28;20483;-66
2023/03/19 10:54:44;;;;;;;4.53;3.15;;;;;;;;;;5009439;28;20088;-65
2023/03/19 10:57:22;;;;;;;3.70;3.05;;;;;;;;;;5009739;28;20133;-67
2023/03/19 10:59:49;;;;;;;5.07;3.38;;;;;;;;;;5009788;28;20046;-66
2023/03/19 11:02:18;;;;;;;3.40;2.88;;;;;;;;;;5009522;28;20049;-66
2023/03/19 11:04:45;;;;;;;4.25;2.70;;;;;;;;;;5009393;28;20052;-66
2023/03/19 11:07:17;;;;;;;5.35;3.15;;;;;;;;;;5008867;28;20410;-66
2023/03/19 11:09:46;;;;;;;4.80;3.70;;;;;;;;;;5009554;28;20053;-67
2023/03/19 11:12:19;;;;;;;4.10;3.03;;;;;;;;;;5009024;28;20403;-66
2023/03/19 11:14:47;;;;;;;5.18;3.72;;;;;;;;;;5009097;28;20451;-65
2023/03/19 11:17:22;;;;;;;4.28;3.50;;;;;;;;;;5009062;28;20061;-66
2023/03/19 11:19:52;;;;;;;5.43;3.97;;;;;;;;;;5009428;28;20111;-65
2023/03/19 11:22:23;;;;;;;4.95;3.65;;;;;;;;;;5009006;28;20495;-66
2023/03/19 11:24:53;;;;;;;5.95;4.35;;;;;;;;;;5009355;28;20419;-66
2023/03/19 11:27:27;;;;;;;7.18;4.20;;;;;;;;;;5008869;28;20046;-66
2023/03/19 11:29:54;;;;;;;6.72;5.00;;;;;;;;;;5009290;28;20489;-66
2023/03/19 11:32:49;;;;;;;6.47;4.68;;;;;;;;;;5008272;28;20068;-65
2023/03/19 11:35:21;;;;;;;5.63;3.80;;;;;;;;;;5009260;28;20053;-65
2023/03/19 11:37:55;;;;;;;6.78;3.60;;;;;;;;;;5008821;28;20054;-65
2023/03/19 11:40:32;;;;;;;4.60;3.83;;;;;;;;;;5008961;28;20479;-67
2023/03/19 11:43:37;;;;;;;5.07;3.70;;;;;;;;;;5008714;28;20506;-66
2023/03/19 11:46:11;;;;;;;6.82;4.32;;;;;;;;;;5029276;28;20446;-66
2023/03/19 11:48:56;;;;;;;4.55;3.30;;;;;;;;;;5011042;28;20407;-66
2023/03/19 11:51:29;;;;;;;6.43;3.70;;;;;;;;;;5009056;28;20077;-65
2023/03/19 11:54:05;;;;;;;5.07;3.53;;;;;;;;;;5008550;28;20125;-66
2023/03/19 11:56:39;;;;;;;21.23;17.40;;;;;;;;;;5009144;28;20054;-66
2023/03/19 11:59:35;;;;;;;8.15;6.43;;;;;;;;;;5008189;28;20056;-66
2023/03/19 12:02:46;;;;;;;7.78;5.15;;;;;;;;;;5008456;28;20050;-67
2023/03/19 12:05:23;;;;;;;9.15;6.22;;;;;;;;;;5017138;28;20415;-66
2023/03/19 12:08:04;;;;;;;6.18;3.63;;;;;;;;;;5008705;28;20046;-67
2023/03/19 12:10:44;;;;;;;7.05;6.10;;;;;;;;;;5008137;28;20042;-66
2023/03/19 12:13:25;;;;;;;5.68;3.70;;;;;;;;;;5008927;28;20054;-67
2023/03/19 12:16:00;;;;;;;5.18;3.30;;;;;;;;;;5008277;28;20046;-66
2023/03/19 12:18:44;;;;;;;5.97;3.78;;;;;;;;;;5008276;28;20498;-65
2023/03/19 12:21:18;;;;;;;4.03;3.30;;;;;;;;;;5008576;28;20499;-66
2023/03/19 12:24:02;;;;;;;4.05;2.70;;;;;;;;;;5008405;28;20388;-65
2023/03/19 12:26:39;;;;;;;3.28;2.40;;;;;;;;;;5008211;28;20050;-67
2023/03/19 12:29:17;;;;;;;3.55;2.53;;;;;;;;;;5007912;28;20076;-64
2023/03/19 12:32:04;;;;;;;3.83;2.17;;;;;;;;;;5008290;28;20137;-65
2023/03/19 12:34:35;;;;;;;5.05;3.60;;;;;;;;;;5007987;28;20046;-66
2023/03/19 12:37:12;;;;;;;3.58;2.30;;;;;;;;;;5008043;28;20050;-65
2023/03/19 12:39:43;;;;;;;3.65;2.75;;;;;;;;;;5007813;28;20606;-65
2023/03/19 12:42:16;;;;;;;3.72;3.33;;;;;;;;;;5008445;28;20046;-66
2023/03/19 12:44:47;;;;;;;3.05;2.10;;;;;;;;;;5007636;28;20056;-67
2023/03/19 12:47:21;;;;;;;16.52;8.15;;;;;;;;;;5007888;28;20134;-66
2023/03/19 12:49:51;;;;;;;9.30;6.53;;;;;;;;;;5008330;28;20049;-66
2023/03/19 12:52:23;;;;;;;3.55;2.40;;;;;;;;;;5007856;28;20050;-66
2023/03/19 12:54:58;;;;;;;2.47;2.13;;;;;;;;;;5008385;28;20046;-65
2023/03/19 12:57:35;;;;;;;3.47;1.70;;;;;;;;;;5008733;28;20053;-65
2023/03/19 13:00:06;;;;;;;6.40;3.78;;;;;;;;;;5008709;28;20068;-65
2023/03/19 13:02:38;;;;;;;2.65;2.45;;;;;;;;;;5007739;28;20053;-66
2023/03/19 13:05:09;;;;;;;2.97;2.50;;;;;;;;;;5007994;28;20499;-65
2023/03/19 13:07:44;;;;;;;2.80;2.10;;;;;;;;;;5008508;28;20056;-65
2023/03/19 13:10:17;;;;;;;3.40;2.25;;;;;;;;;;5008724;28;20517;-65
2023/03/19 13:12:47;;;;;;;6.47;5.97;;;;;;;;;;5008049;28;20072;-67
2023/03/19 13:15:20;;;;;;;3.85;2.28;;;;;;;;;;5007382;28;20042;-66
2023/03/19 13:17:53;;;;;;;;;;;;;;;;;;5007818;28;20514;-66
2023/03/19 13:20:27;;;;;;;2.83;2.10;;;;;;;;;;5007485;28;19932;-66
2023/03/19 13:22:56;;;;;;;2.50;2.30;;;;;;;;;;5007456;28;20057;-67
2023/03/19 13:25:27;;;;;;;3.25;2.28;;;;;;;;;;5007190;28;20050;-65
2023/03/19 13:27:55;;;;;;;3.45;2.97;;;;;;;;;;5006893;28;20048;-66
2023/03/19 13:30:25;;;;;;;2.47;2.25;;;;;;;;;;5007391;28;20056;-68
2023/03/19 13:33:00;;;;;;;1.98;1.70;;;;;;;;;;5007176;28;20098;-67
2023/03/19 13:35:35;;;;;;;2.38;2.03;;;;;;;;;;5007308;28;20484;-68
2023/03/19 13:38:06;;;;;;;2.75;2.55;;;;;;;;;;5006534;28;20412;-65
2023/03/19 13:40:39;;;;;;;2.67;2.47;;;;;;;;;;5007339;28;20244;-66
2023/03/19 13:43:21;;;;;;;1.77;1.60;;;;;;;;;;5007065;28;20064;-66
2023/03/19 13:45:52;;;;;;;2.08;1.63;;;;;;;;;;5007180;28;20068;-65
2023/03/19 13:48:37;;;;;;;1.55;1.40;;;;;;;;;;5006257;28;20057;-67
2023/03/19 13:51:24;;;;;;;2.50;1.92;;;;;;;;;;5007432;28;20057;-64
2023/03/19 13:53:53;;;;;;;9.50;4.10;;;;;;;;;;5006839;28;20081;-65
2023/03/19 13:56:21;;;;;;;3.75;2.20;;;;;;;;;;5008240;28;20042;-68
2023/03/19 13:58:52;;;;;;;6.13;3.47;;;;;;;;;;5009863;28;20503;-65
2023/03/19 14:01:39;;;;;;;7.32;3.53;;;;;;;;;;5010523;28;20072;-68
2023/03/19 14:04:15;;;;;;;1.85;1.23;;;;;;;;;;5010155;28;20053;-66
2023/03/19 14:06:45;;;;;;;2.10;1.83;;;;;;;;;;5010990;28;20056;-66
2023/03/19 14:09:31;;;;;;;1.50;1.27;;;;;;;;;;5009876;28;20568;-68
2023/03/19 14:12:10;;;;;;;1.73;1.63;;;;;;;;;;5010651;28;20064;-66
2023/03/19 14:14:41;;;;;;;1.00;1.00;;;;;;;;;;5010047;28;20042;-65
2023/03/19 14:17:15;;;;;;;3.17;2.83;;;;;;;;;;5010201;28;20411;-65
2023/03/19 14:19:42;;;;;;;1.10;1.00;;;;;;;;;;5010495;28;20494;-66
2023/03/19 14:22:18;;;;;;;1.17;1.00;;;;;;;;;;5010482;28;20049;-66
2023/03/19 14:24:55;;;;;;;0.80;0.80;;;;;;;;;;5009898;28;20384;-66
2023/03/19 14:27:28;;;;;;;0.70;0.70;;;;;;;;;;5010093;28;20137;-66
2023/03/19 14:29:57;;;;;;;0.82;0.75;;;;;;;;;;5009703;28;20139;-65
2023/03/19 14:32:29;;;;;;;0.85;0.82;;;;;;;;;;5010377;28;20042;-67
2023/03/19 14:34:56;;;;;;;1.73;0.70;;;;;;;;;;5009887;28;20046;-67
2023/03/19 14:37:24;;;;;;;0.95;0.70;;;;;;;;;;5009909;28;20053;-64
2023/03/19 14:39:58;;;;;;;0.85;0.70;;;;;;;;;;5009757;28;20077;-64
2023/03/19 14:42:30;;;;;;;1.02;0.80;;;;;;;;;;5009938;28;20426;-65
2023/03/19 14:45:30;;;;;;;0.85;0.85;;;;;;;;;;5009792;28;20046;-64
2023/03/19 14:48:07;;;;;;;0.70;0.70;;;;;;;;;;5009936;28;20046;-64
2023/03/19 14:50:55;;;;;;;0.70;0.70;;;;;;;;;;5009547;28;20054;-64
2023/03/19 14:53:25;;;;;;;0.70;0.57;;;;;;;;;;5012770;28;20042;-63
2023/03/19 14:55:53;;;;;;;0.75;0.60;;;;;;;;;;5009955;28;20046;-64
2023/03/19 14:58:20;;;;;;;0.63;0.60;;;;;;;;;;5009396;28;20053;-64